createdAt,value
2018-02-17T00:00:13.446Z,102428.45
2018-02-17T00:02:41.789Z,102429.50
2018-02-17T00:05:10.549Z,102437.73
2018-02-17T00:07:38.898Z,102442.02
2018-02-17T00:10:08.404Z,102444.84
2018-02-17T00:12:36.856Z,102438.59
2018-02-17T00:15:05.232Z,102443.48
2018-02-17T00:17:33.690Z,102442.14
2018-02-17T00:20:02.209Z,102449.98
2018-02-17T00:22:30.601Z,102455.70
2018-02-17T00:24:59.071Z,102455.45
2018-02-17T00:27:27.562Z,102457.70
2018-02-17T00:29:56.759Z,102465.70
2018-02-17T00:32:26.163Z,102461.41
2018-02-17T00:34:54.543Z,102460.03
2018-02-17T00:37:23.116Z,102477.75
2018-02-17T00:39:51.573Z,102470.34
2018-02-17T00:42:20.094Z,102472.81
2018-02-17T00:44:48.448Z,102478.19
2018-02-17T00:47:16.782Z,102467.27
2018-02-17T00:49:45.943Z,102469.39
2018-02-17T00:52:14.344Z,102475.67
2018-02-17T00:54:43.264Z,102474.97
2018-02-17T00:57:11.594Z,102472.81
2018-02-17T00:59:40.040Z,102475.27
2018-02-17T01:02:08.397Z,102472.42
2018-02-17T01:04:36.733Z,102468.22
2018-02-17T01:07:05.850Z,102475.41
2018-02-17T01:09:34.308Z,102477.92
2018-02-17T01:12:03.413Z,102475.50
2018-02-17T01:14:31.828Z,102476.23
2018-02-17T01:17:00.504Z,102472.27
2018-02-17T01:19:29.040Z,102465.39
2018-02-17T01:21:57.472Z,102469.36
2018-02-17T01:24:25.852Z,102472.78
2018-02-17T01:26:54.221Z,102466.36
2018-02-17T01:29:22.611Z,102459.03
2018-02-17T01:31:51.034Z,102467.81
2018-02-17T01:34:19.370Z,102449.77
2018-02-17T01:36:47.755Z,102454.95
2018-02-17T01:39:16.282Z,102450.33
2018-02-17T01:41:44.658Z,102454.68
2018-02-17T01:44:12.967Z,102446.23
2018-02-17T01:46:41.340Z,102439.67
2018-02-17T01:49:09.667Z,102449.59
2018-02-17T01:51:38.753Z,102443.33
2018-02-17T01:54:07.193Z,102431.37
2018-02-17T01:56:35.496Z,102433.34
2018-02-17T01:59:03.871Z,102430.30
2018-02-17T02:01:32.561Z,102431.77
2018-02-17T02:04:00.876Z,102422.58
2018-02-17T02:06:29.943Z,102423.33
2018-02-17T02:08:58.326Z,102429.75
2018-02-17T02:11:26.704Z,102428.20
2018-02-17T02:13:55.069Z,102426.57
2018-02-17T02:16:23.462Z,102429.30
2018-02-17T02:18:51.828Z,102428.30
2018-02-17T02:21:20.929Z,102430.16
2018-02-17T02:23:49.607Z,102432.27
2018-02-17T02:26:18.070Z,102435.23
2018-02-17T02:28:46.489Z,102430.66
2018-02-17T02:31:14.950Z,102430.09
2018-02-17T02:33:43.370Z,102430.05
2018-02-17T02:36:12.554Z,102424.88
2018-02-17T02:38:40.928Z,102434.37
2018-02-17T02:41:10.074Z,102426.73
2018-02-17T02:43:38.414Z,102423.02
2018-02-17T02:46:07.037Z,102426.39
2018-02-17T02:48:35.393Z,102429.42
2018-02-17T02:51:04.562Z,102427.93
2018-02-17T02:53:32.947Z,102427.55
2018-02-17T02:56:01.331Z,102427.51
2018-02-17T02:58:29.677Z,102431.05
2018-02-17T03:00:58.977Z,102432.63
2018-02-17T03:03:27.383Z,102427.83
2018-02-17T03:05:55.773Z,102429.48
2018-02-17T03:08:24.388Z,102425.41
2018-02-17T03:10:53.522Z,102429.78
2018-02-17T03:13:21.855Z,102432.00
2018-02-17T03:15:51.162Z,102424.15
2018-02-17T03:18:19.488Z,102427.78
2018-02-17T03:20:47.890Z,102424.52
2018-02-17T03:23:16.249Z,102421.78
2018-02-17T03:25:44.615Z,102425.70
2018-02-17T03:28:12.942Z,102424.23
2018-02-17T03:30:42.501Z,102420.09
2018-02-17T03:33:10.926Z,102422.30
2018-02-17T03:35:39.298Z,102421.58
2018-02-17T03:38:07.772Z,102419.73
2018-02-17T03:40:36.184Z,102416.09
2018-02-17T03:43:04.500Z,102414.62
2018-02-17T03:45:32.862Z,102420.49
2018-02-17T03:48:01.242Z,102416.67
2018-02-17T03:50:29.563Z,102416.13
2018-02-17T03:52:58.379Z,102420.37
2018-02-17T03:55:27.475Z,102415.44
2018-02-17T03:57:56.609Z,102415.42
2018-02-17T04:00:24.925Z,102410.77
2018-02-17T04:02:53.263Z,102408.70
2018-02-17T04:05:21.583Z,102414.20
2018-02-17T04:07:49.942Z,102410.63
2018-02-17T04:10:18.268Z,102416.05
2018-02-17T04:12:47.337Z,102409.55
2018-02-17T04:15:16.125Z,102409.44
2018-02-17T04:17:44.465Z,102414.96
2018-02-17T04:20:12.826Z,102408.66
2018-02-17T04:22:41.236Z,102412.69
2018-02-17T04:25:09.503Z,102403.58
2018-02-17T04:27:37.807Z,102414.30
2018-02-17T04:30:06.181Z,102412.19
2018-02-17T04:32:34.533Z,102406.19
2018-02-17T04:35:02.866Z,102401.55
2018-02-17T04:37:32.068Z,102404.13
2018-02-17T04:43:26.137Z,102404.97
2018-02-17T04:49:22.679Z,102392.16
2018-02-17T04:55:01.468Z,102392.00
2018-02-17T04:57:31.224Z,102393.02
2018-02-17T05:00:04.515Z,102389.70
2018-02-17T05:02:39.209Z,102389.41
2018-02-17T05:05:09.181Z,102391.41
2018-02-17T05:07:40.537Z,102386.37
2018-02-17T05:10:08.896Z,102389.04
2018-02-17T05:12:37.628Z,102385.10
2018-02-17T05:15:11.596Z,102388.00
2018-02-17T05:17:42.632Z,102388.18
2018-02-17T05:20:15.725Z,102386.14
2018-02-17T05:22:49.532Z,102391.73
2018-02-17T05:25:28.636Z,102388.97
2018-02-17T05:27:57.237Z,102383.88
2018-02-17T05:33:37.205Z,102382.45
2018-02-17T05:36:10.945Z,102375.06
2018-02-17T05:38:39.731Z,102377.39
2018-02-17T05:41:08.052Z,102376.70
2018-02-17T05:43:37.130Z,102371.52
2018-02-17T05:46:07.557Z,102359.77
2018-02-17T05:48:38.556Z,102364.19
2018-02-17T05:51:06.865Z,102362.30
2018-02-17T05:53:35.479Z,102369.39
2018-02-17T05:56:03.804Z,102371.70
2018-02-17T05:58:32.106Z,102374.24
2018-02-17T06:01:00.554Z,102376.95
2018-02-17T06:03:28.881Z,102375.02
2018-02-17T06:05:57.969Z,102368.71
2018-02-17T06:08:27.459Z,102367.06
2018-02-17T06:10:55.784Z,102368.78
2018-02-17T06:13:24.100Z,102363.90
2018-02-17T06:15:52.661Z,102365.41
2018-02-17T06:18:21.098Z,102358.23
2018-02-17T06:20:49.432Z,102370.52
2018-02-17T06:23:17.753Z,102365.64
2018-02-17T06:25:46.808Z,102372.27
2018-02-17T06:28:15.118Z,102374.28
2018-02-17T06:30:44.208Z,102369.16
2018-02-17T06:33:12.570Z,102379.52
2018-02-17T06:35:40.872Z,102377.45
2018-02-17T06:38:09.241Z,102374.32
2018-02-17T06:40:37.576Z,102376.65
2018-02-17T06:43:05.937Z,102372.67
2018-02-17T06:45:34.278Z,102374.23
2018-02-17T06:48:02.580Z,102376.70
2018-02-17T06:50:31.638Z,102373.39
2018-02-17T06:53:00.282Z,102381.33
2018-02-17T06:55:28.586Z,102372.30
2018-02-17T06:57:57.021Z,102377.35
2018-02-17T07:00:26.153Z,102375.37
2018-02-17T07:02:54.489Z,102375.69
2018-02-17T07:05:23.609Z,102380.31
2018-02-17T07:07:51.961Z,102378.38
2018-02-17T07:10:20.295Z,102375.98
2018-02-17T07:12:48.614Z,102379.92
2018-02-17T07:15:18.085Z,102382.87
2018-02-17T07:17:46.396Z,102387.47
2018-02-17T07:20:15.520Z,102385.16
2018-02-17T07:22:43.908Z,102386.11
2018-02-17T07:25:12.239Z,102377.56
2018-02-17T07:27:40.607Z,102384.44
2018-02-17T07:30:08.995Z,102378.30
2018-02-17T07:32:37.477Z,102375.87
2018-02-17T07:35:05.880Z,102366.40
2018-02-17T07:37:34.850Z,102370.96
2018-02-17T07:40:03.228Z,102364.91
2018-02-17T07:42:31.735Z,102362.99
2018-02-17T07:45:00.918Z,102367.19
2018-02-17T07:47:29.293Z,102372.87
2018-02-17T07:49:57.647Z,102370.84
2018-02-17T07:52:26.036Z,102366.52
2018-02-17T07:54:54.432Z,102370.55
2018-02-17T07:57:23.736Z,102354.96
2018-02-17T07:59:53.425Z,102355.63
2018-02-17T08:02:21.756Z,102363.77
2018-02-17T08:04:50.137Z,102354.63
2018-02-17T08:07:18.513Z,102350.11
2018-02-17T08:09:46.846Z,102348.84
2018-02-17T08:12:15.147Z,102352.13
2018-02-17T08:14:43.511Z,102346.23
2018-02-17T08:17:11.895Z,102341.78
2018-02-17T08:19:40.237Z,102334.98
2018-02-17T08:22:08.881Z,102340.09
2018-02-17T08:24:37.225Z,102338.45
2018-02-17T08:27:06.334Z,102333.98
2018-02-17T08:29:34.774Z,102328.89
2018-02-17T08:32:03.248Z,102329.09
2018-02-17T08:34:31.581Z,102335.28
2018-02-17T08:36:59.972Z,102334.38
2018-02-17T08:39:28.319Z,102338.70
2018-02-17T08:41:56.651Z,102333.84
2018-02-17T08:44:25.398Z,102333.64
2018-02-17T08:46:53.730Z,102322.16
2018-02-17T08:49:22.064Z,102327.86
2018-02-17T08:51:51.219Z,102324.22
2018-02-17T08:54:19.570Z,102332.75
2018-02-17T08:56:47.895Z,102324.45
2018-02-17T08:59:16.482Z,102319.13
2018-02-17T09:01:44.829Z,102316.91
2018-02-17T09:04:13.184Z,102317.56
2018-02-17T09:06:41.955Z,102318.98
2018-02-17T09:09:10.369Z,102318.98
2018-02-17T09:11:38.938Z,102315.78
2018-02-17T09:14:07.268Z,102311.53
2018-02-17T09:16:35.628Z,102314.56
2018-02-17T09:19:03.991Z,102319.30
2018-02-17T09:21:32.385Z,102313.58
2018-02-17T09:24:00.734Z,102321.52
2018-02-17T09:26:29.125Z,102312.14
2018-02-17T09:28:57.811Z,102322.05
2018-02-17T09:31:26.150Z,102323.55
2018-02-17T09:33:55.285Z,102321.36
2018-02-17T09:36:23.617Z,102316.96
2018-02-17T09:38:52.035Z,102316.97
2018-02-17T09:41:20.364Z,102313.86
2018-02-17T09:43:48.737Z,102310.80
2018-02-17T09:46:24.327Z,102313.72
2018-02-17T09:48:56.716Z,102317.36
2018-02-17T09:51:25.193Z,102312.84
2018-02-17T09:53:54.435Z,102312.09
2018-02-17T09:56:22.866Z,102316.16
2018-02-17T09:58:51.205Z,102321.63
2018-02-17T10:01:19.609Z,102319.85
2018-02-17T10:03:48.056Z,102315.34
2018-02-17T10:06:16.393Z,102318.52
2018-02-17T10:08:44.726Z,102322.74
2018-02-17T10:11:13.562Z,102313.94
2018-02-17T10:13:41.960Z,102317.94
2018-02-17T10:16:10.301Z,102314.82
2018-02-17T10:18:39.479Z,102319.13
2018-02-17T10:21:08.049Z,102329.06
2018-02-17T10:23:36.409Z,102328.55
2018-02-17T10:26:04.837Z,102334.67
2018-02-17T10:28:33.960Z,102335.72
2018-02-17T10:31:02.360Z,102344.06
2018-02-17T10:33:30.846Z,102337.72
2018-02-17T10:35:59.169Z,102345.22
2018-02-17T10:38:27.528Z,102337.16
2018-02-17T10:40:55.897Z,102338.27
2018-02-17T10:43:24.237Z,102340.90
2018-02-17T10:45:52.542Z,102337.66
2018-02-17T10:48:20.897Z,102333.97
2018-02-17T10:50:49.259Z,102330.91
2018-02-17T10:53:17.688Z,102325.83
2018-02-17T10:55:46.198Z,102317.75
2018-02-17T10:58:14.545Z,102313.96
2018-02-17T11:00:42.907Z,102314.06
2018-02-17T11:03:12.027Z,102304.70
2018-02-17T11:05:40.380Z,102305.52
2018-02-17T11:08:08.733Z,102303.14
2018-02-17T11:10:37.873Z,102302.14
2018-02-17T11:13:06.226Z,102299.24
2018-02-17T11:15:34.567Z,102292.63
2018-02-17T11:18:03.122Z,102297.44
2018-02-17T11:20:32.263Z,102297.69
2018-02-17T11:23:01.399Z,102291.86
2018-02-17T11:25:29.836Z,102294.42
2018-02-17T11:27:58.960Z,102285.13
2018-02-17T11:30:27.301Z,102281.66
2018-02-17T11:32:55.669Z,102279.50
2018-02-17T11:35:24.018Z,102283.44
2018-02-17T11:37:52.370Z,102284.48
2018-02-17T11:40:21.693Z,102291.14
2018-02-17T11:42:50.049Z,102277.45
2018-02-17T11:45:18.391Z,102277.35
2018-02-17T11:47:46.820Z,102280.55
2018-02-17T11:50:15.226Z,102279.06
2018-02-17T11:52:43.582Z,102282.47
2018-02-17T11:55:12.002Z,102281.98
2018-02-17T11:57:40.358Z,102284.78
2018-02-17T12:00:08.669Z,102289.75
2018-02-17T12:02:37.276Z,102283.92
2018-02-17T12:05:06.378Z,102287.58
2018-02-17T12:07:34.718Z,102280.34
2018-02-17T12:10:03.162Z,102276.58
2018-02-17T12:12:31.628Z,102273.56
2018-02-17T12:15:00.039Z,102272.37
2018-02-17T12:17:50.126Z,102267.30
2018-02-17T12:20:18.595Z,102268.88
2018-02-17T12:22:47.027Z,102266.89
2018-02-17T12:25:15.455Z,102262.30
2018-02-17T12:27:43.903Z,102266.86
2018-02-17T12:30:13.130Z,102259.45
2018-02-17T12:32:41.565Z,102264.42
2018-02-17T12:35:09.991Z,102262.27
2018-02-17T12:37:38.404Z,102264.94
2018-02-17T12:40:07.501Z,102260.42
2018-02-17T12:42:35.916Z,102259.30
2018-02-17T12:45:04.326Z,102261.38
2018-02-17T12:47:32.683Z,102254.36
2018-02-17T12:50:01.011Z,102254.41
2018-02-17T12:52:29.369Z,102257.97
2018-02-17T12:54:57.734Z,102259.59
2018-02-17T12:57:26.071Z,102259.56
2018-02-17T12:59:54.744Z,102262.23
2018-02-17T13:02:23.899Z,102260.22
2018-02-17T13:04:52.994Z,102261.42
2018-02-17T13:07:21.358Z,102262.60
2018-02-17T13:09:49.678Z,102258.95
2018-02-17T13:12:18.106Z,102265.23
2018-02-17T13:14:46.491Z,102268.84
2018-02-17T13:17:15.656Z,102270.78
2018-02-17T13:19:44.086Z,102273.41
2018-02-17T13:22:12.901Z,102273.53
2018-02-17T13:24:41.276Z,102273.56
2018-02-17T13:27:09.694Z,102266.55
2018-02-17T13:29:38.137Z,102269.27
2018-02-17T13:32:06.497Z,102265.84
2018-02-17T13:34:34.850Z,102262.31
2018-02-17T13:37:03.251Z,102264.80
2018-02-17T13:39:32.370Z,102270.75
2018-02-17T13:42:00.779Z,102268.17
2018-02-17T13:44:29.629Z,102270.25
2018-02-17T13:46:58.004Z,102275.34
2018-02-17T13:49:26.359Z,102275.88
2018-02-17T13:51:55.477Z,102276.20
2018-02-17T13:54:23.814Z,102275.62
2018-02-17T13:56:52.169Z,102275.39
2018-02-17T13:59:20.593Z,102285.27
2018-02-17T14:01:48.999Z,102281.83
2018-02-17T14:04:17.380Z,102287.19
2018-02-17T14:06:46.369Z,102287.03
2018-02-17T14:09:14.733Z,102280.31
2018-02-17T14:11:43.106Z,102284.21
2018-02-17T14:14:11.517Z,102279.89
2018-02-17T14:16:39.886Z,102282.72
2018-02-17T14:19:08.281Z,102281.37
2018-02-17T14:21:36.631Z,102285.59
2018-02-17T14:24:04.979Z,102283.02
2018-02-17T14:26:33.357Z,102281.79
2018-02-17T14:29:02.326Z,102290.78
2018-02-17T14:31:30.785Z,102292.62
2018-02-17T14:34:01.593Z,102293.11
2018-02-17T14:36:30.141Z,102290.04
2018-02-17T14:38:58.509Z,102292.13
2018-02-17T14:41:28.364Z,102289.29
2018-02-17T14:43:56.742Z,102289.92
2018-02-17T14:46:25.092Z,102294.40
2018-02-17T14:48:53.537Z,102293.60
2018-02-17T14:51:21.995Z,102294.34
2018-02-17T14:53:51.156Z,102294.22
2018-02-17T14:56:19.526Z,102298.53
2018-02-17T14:58:47.927Z,102294.66
2018-02-17T15:01:16.402Z,102295.77
2018-02-17T15:03:44.804Z,102299.58
2018-02-17T15:06:13.242Z,102303.88
2018-02-17T15:08:41.569Z,102297.66
2018-02-17T15:11:10.685Z,102300.62
2018-02-17T15:13:39.348Z,102295.81
2018-02-17T15:16:07.748Z,102297.90
2018-02-17T15:18:36.133Z,102303.68
2018-02-17T15:21:04.578Z,102306.31
2018-02-17T15:23:32.922Z,102310.88
2018-02-17T15:26:01.336Z,102310.73
2018-02-17T15:28:29.692Z,102311.92
2018-02-17T15:30:58.054Z,102312.03
2018-02-17T15:33:26.451Z,102316.72
2018-02-17T15:35:54.955Z,102318.81
2018-02-17T15:38:23.317Z,102321.37
2018-02-17T15:40:51.669Z,102323.14
2018-02-17T15:43:20.214Z,102321.27
2018-02-17T15:45:49.326Z,102318.05
2018-02-17T15:48:17.703Z,102323.25
2018-02-17T15:50:46.572Z,102323.58
2018-02-17T15:53:15.723Z,102328.00
2018-02-17T15:55:44.070Z,102328.83
2018-02-17T15:58:12.788Z,102327.80
2018-02-17T16:00:41.116Z,102326.94
2018-02-17T16:03:09.452Z,102326.13
2018-02-17T16:05:37.849Z,102330.05
2018-02-17T16:08:06.304Z,102333.38
2018-02-17T16:10:34.682Z,102338.78
2018-02-17T16:13:03.043Z,102336.28
2018-02-17T16:15:31.360Z,102337.72
2018-02-17T16:17:59.660Z,102339.55
2018-02-17T16:20:28.694Z,102342.41
2018-02-17T16:22:57.140Z,102352.30
2018-02-17T16:25:25.506Z,102351.03
2018-02-17T16:27:53.899Z,102348.49
2018-02-17T16:30:22.246Z,102356.97
2018-02-17T16:32:51.376Z,102358.20
2018-02-17T16:35:19.782Z,102355.66
2018-02-17T16:37:48.118Z,102357.45
2018-02-17T16:40:16.448Z,102361.97
2018-02-17T16:42:45.043Z,102352.61
2018-02-17T16:45:13.504Z,102354.10
2018-02-17T16:47:42.042Z,102357.88
2018-02-17T16:50:10.398Z,102359.02
2018-02-17T16:52:38.694Z,102360.89
2018-02-17T16:55:07.014Z,102364.48
2018-02-17T16:57:36.141Z,102366.84
2018-02-17T17:00:04.503Z,102371.59
2018-02-17T17:02:32.878Z,102367.59
2018-02-17T17:05:01.559Z,102363.23
2018-02-17T17:07:29.869Z,102369.94
2018-02-17T17:09:58.221Z,102374.64
2018-02-17T17:12:26.613Z,102369.83
2018-02-17T17:14:54.956Z,102366.21
2018-02-17T17:17:24.119Z,102371.86
2018-02-17T17:19:52.499Z,102374.14
2018-02-17T17:22:20.840Z,102379.93
2018-02-17T17:24:49.184Z,102380.52
2018-02-17T17:27:17.829Z,102381.66
2018-02-17T17:29:46.185Z,102389.00
2018-02-17T17:32:14.634Z,102382.79
2018-02-17T17:34:43.002Z,102380.09
2018-02-17T17:37:11.370Z,102387.38
2018-02-17T17:39:39.737Z,102387.38
2018-02-17T17:42:08.117Z,102392.45
2018-02-17T17:44:36.488Z,102391.75
2018-02-17T17:47:04.842Z,102394.66
2018-02-17T17:49:33.572Z,102396.28
2018-02-17T17:52:01.957Z,102400.44
2018-02-17T17:54:30.410Z,102403.57
2018-02-17T17:56:58.765Z,102396.28
2018-02-17T17:59:27.108Z,102409.02
2018-02-17T18:01:55.464Z,102408.27
2018-02-17T18:04:23.869Z,102405.63
2018-02-17T18:06:52.992Z,102409.02
2018-02-17T18:09:21.305Z,102414.64
2018-02-17T18:11:49.922Z,102416.52
2018-02-17T18:14:18.282Z,102412.20
2018-02-17T18:16:46.740Z,102415.70
2018-02-17T18:19:15.120Z,102413.50
2018-02-17T18:21:43.484Z,102415.39
2018-02-17T18:24:11.850Z,102410.25
2018-02-17T18:26:40.970Z,102417.66
2018-02-17T18:29:09.305Z,102412.05
2018-02-17T18:31:37.647Z,102417.72
2018-02-17T18:34:06.202Z,102412.91
2018-02-17T18:36:34.537Z,102413.40
2018-02-17T18:39:03.084Z,102399.95
2018-02-17T18:41:31.437Z,102404.48
2018-02-17T18:43:59.776Z,102412.37
2018-02-17T18:46:28.125Z,102409.78
2018-02-17T18:48:56.565Z,102414.20
2018-02-17T18:51:25.686Z,102419.60
2018-02-17T18:53:54.017Z,102421.81
2018-02-17T18:56:23.666Z,102423.44
2018-02-17T18:58:52.296Z,102421.59
2018-02-17T19:01:20.720Z,102428.19
2018-02-17T19:03:49.122Z,102431.20
2018-02-17T19:06:17.496Z,102429.31
2018-02-17T19:08:45.833Z,102419.82
2018-02-17T19:11:14.256Z,102421.71
2018-02-17T19:13:42.637Z,102415.77
2018-02-17T19:16:11.006Z,102423.44
2018-02-17T19:18:39.667Z,102424.73
2018-02-17T19:21:08.782Z,102430.23
2018-02-17T19:23:37.116Z,102427.31
2018-02-17T19:26:05.513Z,102429.73
2018-02-17T19:28:33.875Z,102429.52
2018-02-17T19:31:02.202Z,102433.19
2018-02-17T19:33:30.544Z,102430.46
2018-02-17T19:35:58.889Z,102426.53
2018-02-17T19:38:27.234Z,102433.66
2018-02-17T19:40:55.602Z,102443.56
2018-02-17T19:43:24.710Z,102438.72
2018-02-17T19:45:53.806Z,102437.31
2018-02-17T19:48:22.176Z,102434.26
2018-02-17T19:50:51.308Z,102437.31
2018-02-17T19:53:24.938Z,102433.90
2018-02-17T19:55:53.725Z,102440.33
2018-02-17T19:58:22.060Z,102443.67
2018-02-17T20:00:50.458Z,102440.55
2018-02-17T20:03:18.917Z,102439.86
2018-02-17T20:05:47.284Z,102437.62
2018-02-17T20:08:15.673Z,102446.44
2018-02-17T20:10:44.028Z,102441.25
2018-02-17T20:13:12.405Z,102447.45
2018-02-17T20:15:40.841Z,102447.19
2018-02-17T20:18:09.200Z,102445.02
2018-02-17T20:20:37.608Z,102448.36
2018-02-17T20:23:06.113Z,102451.71
2018-02-17T20:25:34.505Z,102451.73
2018-02-17T20:28:02.913Z,102455.29
2018-02-17T20:30:31.314Z,102458.13
2018-02-17T20:32:59.715Z,102453.27
2018-02-17T20:35:28.115Z,102459.36
2018-02-17T20:37:56.559Z,102467.61
2018-02-17T20:40:24.944Z,102463.89
2018-02-17T20:42:53.372Z,102466.72
2018-02-17T20:45:22.638Z,102467.26
2018-02-17T20:47:50.957Z,102469.44
2018-02-17T20:50:20.456Z,102466.11
2018-02-17T20:52:49.625Z,102468.05
2018-02-17T20:55:17.963Z,102474.77
2018-02-17T20:57:46.314Z,102486.45
2018-02-17T21:00:14.697Z,102485.72
2018-02-17T21:02:43.090Z,102486.78
2018-02-17T21:05:11.470Z,102484.14
2018-02-17T21:07:40.189Z,102489.28
2018-02-17T21:10:08.601Z,102487.36
2018-02-17T21:12:37.016Z,102491.05
2018-02-17T21:15:05.376Z,102495.53
2018-02-17T21:17:33.715Z,102499.60
2018-02-17T21:20:02.080Z,102488.09
2018-02-17T21:22:30.511Z,102503.00
2018-02-17T21:24:58.869Z,102504.17
2018-02-17T21:27:27.220Z,102511.48
2018-02-17T21:29:55.670Z,102508.41
2018-02-17T21:32:24.013Z,102524.58
2018-02-17T21:34:52.385Z,102524.28
2018-02-17T21:37:20.773Z,102521.53
2018-02-17T21:39:49.133Z,102528.83
2018-02-17T21:42:17.451Z,102521.03
2018-02-17T21:44:46.595Z,102517.25
2018-02-17T21:47:14.934Z,102529.24
2018-02-17T21:49:43.272Z,102535.97
2018-02-17T21:52:12.228Z,102539.44
2018-02-17T21:54:41.273Z,102537.07
2018-02-17T21:57:09.653Z,102543.06
2018-02-17T21:59:38.017Z,102539.09
2018-02-17T22:02:06.419Z,102541.94
2018-02-17T22:04:34.786Z,102546.02
2018-02-17T22:07:03.176Z,102547.69
2018-02-17T22:09:31.553Z,102550.11
2018-02-17T22:11:59.935Z,102551.87
2018-02-17T22:14:28.415Z,102551.31
2018-02-17T22:16:56.769Z,102556.67
2018-02-17T22:19:25.105Z,102550.94
2018-02-17T22:21:53.505Z,102550.23
2018-02-17T22:24:21.826Z,102551.58
2018-02-17T22:26:50.141Z,102548.98
2018-02-17T22:29:18.488Z,102551.63
2018-02-17T22:31:46.858Z,102551.23
2018-02-17T22:34:15.209Z,102553.09
2018-02-17T22:36:43.721Z,102564.25
2018-02-17T22:39:12.077Z,102567.04
2018-02-17T22:41:40.421Z,102558.53
2018-02-17T22:44:08.798Z,102567.08
2018-02-17T22:46:37.135Z,102563.89
2018-02-17T22:49:05.454Z,102570.50
2018-02-17T22:51:33.819Z,102570.55
2018-02-17T22:54:02.922Z,102571.27
2018-02-17T22:56:32.049Z,102577.83
2018-02-17T22:59:01.026Z,102578.94
2018-02-17T23:01:29.348Z,102581.11
2018-02-17T23:03:57.696Z,102587.80
2018-02-17T23:06:26.067Z,102583.92
2018-02-17T23:08:54.413Z,102586.27
2018-02-17T23:11:23.541Z,102584.30
2018-02-17T23:13:52.247Z,102586.65
2018-02-17T23:16:20.609Z,102587.47
2018-02-17T23:18:48.942Z,102586.88
2018-02-17T23:21:17.444Z,102594.66
2018-02-17T23:23:46.555Z,102588.36
2018-02-17T23:26:14.982Z,102584.84
2018-02-17T23:28:44.223Z,102592.21
2018-02-17T23:31:12.598Z,102590.79
2018-02-17T23:33:40.995Z,102590.81
2018-02-17T23:36:10.259Z,102598.68
2018-02-17T23:38:38.678Z,102602.34
2018-02-17T23:41:07.808Z,102600.79
2018-02-17T23:43:36.351Z,102603.09
2018-02-17T23:46:04.679Z,102601.16
2018-02-17T23:48:33.072Z,102600.66
2018-02-17T23:51:01.417Z,102602.97
2018-02-17T23:53:29.756Z,102608.39
2018-02-17T23:55:58.858Z,102605.62
2018-02-17T23:58:28.073Z,102606.83
